Time;durP1;ratioP1;P1;durP2;ratioP2;P2;SDS_P1;SDS_P2;PMS_P1;PMS_P2;Temp;Humidity;BMP_temperature;BMP_pressure;BME280_temperature;BME280_humidity;BME280_pressure;Samples;Min_cycle;Max_cycle;Signal;HPM_P1;HPM_P2
2023/07/27 00:00:06;;;;;;;5.00;4.50;;;;;;;;;;5051780;28;20430;-51
2023/07/27 00:02:32;;;;;;;4.97;4.47;;;;;;;;;;5051967;28;20918;-51
2023/07/27 00:04:58;;;;;;;4.67;4.27;;;;;;;;;;5048505;28;20495;-51
2023/07/27 00:07:24;;;;;;;7.33;4.60;;;;;;;;;;5049965;28;20847;-50
2023/07/27 00:09:50;;;;;;;7.80;4.73;;;;;;;;;;5051410;28;20456;-51
2023/07/27 00:12:17;;;;;;;5.00;4.60;;;;;;;;;;5051249;28;20502;-49
2023/07/27 00:14:43;;;;;;;4.80;4.30;;;;;;;;;;5051773;28;20380;-50
2023/07/27 00:17:09;;;;;;;6.03;3.90;;;;;;;;;;5051952;28;20417;-49
2023/07/27 00:19:35;;;;;;;5.00;4.23;;;;;;;;;;5051627;28;20483;-49
2023/07/27 00:22:00;;;;;;;4.53;4.10;;;;;;;;;;5051706;28;20752;-49
2023/07/27 00:24:26;;;;;;;4.00;3.70;;;;;;;;;;5050932;28;20830;-51
2023/07/27 00:26:52;;;;;;;5.43;4.40;;;;;;;;;;5051741;28;20391;-50
2023/07/27 00:29:19;;;;;;;5.40;4.90;;;;;;;;;;5051512;28;20462;-49
2023/07/27 00:31:45;;;;;;;5.30;4.10;;;;;;;;;;5051570;28;20741;-51
2023/07/27 00:34:11;;;;;;;7.27;4.50;;;;;;;;;;5051573;28;20410;-50
2023/07/27 00:36:37;;;;;;;6.17;4.13;;;;;;;;;;5051550;28;20396;-51
2023/07/27 00:39:03;;;;;;;4.60;4.20;;;;;;;;;;5050952;28;20515;-50
2023/07/27 00:41:29;;;;;;;4.33;4.00;;;;;;;;;;5051203;28;20392;-49
2023/07/27 00:43:55;;;;;;;4.53;4.13;;;;;;;;;;5050289;28;20384;-50
2023/07/27 00:46:21;;;;;;;5.00;4.03;;;;;;;;;;5049357;28;20376;-50
2023/07/27 00:48:47;;;;;;;4.77;4.00;;;;;;;;;;5051424;28;20814;-50
2023/07/27 00:51:13;;;;;;;4.43;4.03;;;;;;;;;;5051044;28;20443;-51
2023/07/27 00:53:39;;;;;;;3.90;3.50;;;;;;;;;;5050900;28;20451;-50
2023/07/27 00:56:05;;;;;;;5.23;4.20;;;;;;;;;;5049333;28;20493;-50
2023/07/27 00:58:32;;;;;;;4.30;3.90;;;;;;;;;;5051319;28;20923;-50
2023/07/27 01:01:00;;;;;;;6.00;4.33;;;;;;;;;;5051069;28;20894;-49
2023/07/27 01:03:26;;;;;;;4.50;4.10;;;;;;;;;;5050574;28;20499;-51
2023/07/27 01:05:52;;;;;;;4.90;4.10;;;;;;;;;;5050771;28;20472;-49
2023/07/27 01:08:18;;;;;;;5.30;3.70;;;;;;;;;;5050546;28;20398;-49
2023/07/27 01:10:50;;;;;;;3.97;3.63;;;;;;;;;;5051021;28;20498;-50
2023/07/27 01:13:36;;;;;;;3.70;3.50;;;;;;;;;;5051220;28;20912;-49
2023/07/27 01:16:08;;;;;;;6.73;3.97;;;;;;;;;;5051276;28;20449;-48
2023/07/27 01:18:44;;;;;;;6.53;4.07;;;;;;;;;;5049799;28;20421;-51
2023/07/27 01:21:14;;;;;;;5.40;3.53;;;;;;;;;;5050982;28;20424;-51
2023/07/27 01:23:58;;;;;;;4.63;3.87;;;;;;;;;;5045845;28;21001;-50
2023/07/27 01:26:27;;;;;;;5.67;4.97;;;;;;;;;;5054875;28;20386;-50
2023/07/27 01:29:11;;;;;;;5.67;3.53;;;;;;;;;;5054758;28;20387;-48
2023/07/27 01:31:42;;;;;;;4.00;3.63;;;;;;;;;;5054573;28;20407;-50
2023/07/27 01:34:13;;;;;;;4.80;3.90;;;;;;;;;;5054901;28;20408;-48
2023/07/27 01:36:40;;;;;;;5.47;3.43;;;;;;;;;;5054846;28;20403;-50
2023/07/27 01:39:08;;;;;;;11.80;3.63;;;;;;;;;;5054657;28;20513;-48
2023/07/27 01:41:36;;;;;;;5.43;3.80;;;;;;;;;;5051655;28;20502;-49
2023/07/27 01:44:02;;;;;;;5.40;4.13;;;;;;;;;;5055250;28;20412;-46
2023/07/27 01:46:30;;;;;;;4.13;3.63;;;;;;;;;;5054505;28;20408;-47
2023/07/27 01:48:56;;;;;;;6.40;4.27;;;;;;;;;;5054380;28;20494;-45
2023/07/27 01:51:24;;;;;;;3.63;3.33;;;;;;;;;;5052537;28;20432;-45
2023/07/27 01:53:50;;;;;;;4.53;3.13;;;;;;;;;;5054270;28;20402;-51
2023/07/27 01:56:16;;;;;;;4.80;4.00;;;;;;;;;;5054428;28;20376;-46
2023/07/27 01:58:43;;;;;;;3.70;3.40;;;;;;;;;;5049438;28;20451;-46
2023/07/27 02:01:09;;;;;;;4.40;3.47;;;;;;;;;;5054116;28;20424;-47
2023/07/27 02:03:36;;;;;;;3.83;3.43;;;;;;;;;;5054300;28;20387;-46
2023/07/27 02:06:02;;;;;;;5.93;3.90;;;;;;;;;;5054279;28;20387;-46
2023/07/27 02:08:28;;;;;;;4.23;3.83;;;;;;;;;;5053926;28;20950;-47
2023/07/27 02:11:03;;;;;;;5.50;5.00;;;;;;;;;;5053988;28;20533;-46
2023/07/27 02:13:36;;;;;;;3.87;3.47;;;;;;;;;;5054050;28;20396;-48
2023/07/27 02:16:05;;;;;;;3.90;3.60;;;;;;;;;;5052579;28;20899;-46
2023/07/27 02:18:32;;;;;;;3.80;3.50;;;;;;;;;;5053962;28;20431;-46
2023/07/27 02:20:59;;;;;;;3.87;3.53;;;;;;;;;;5053606;28;20415;-49
2023/07/27 02:23:25;;;;;;;5.20;3.93;;;;;;;;;;5053929;28;20485;-46
2023/07/27 02:25:52;;;;;;;3.77;3.47;;;;;;;;;;5054010;28;20395;-46
2023/07/27 02:28:18;;;;;;;4.70;3.50;;;;;;;;;;5052355;28;20388;-46
2023/07/27 02:30:44;;;;;;;3.73;3.43;;;;;;;;;;5053693;28;20455;-46
2023/07/27 02:33:10;;;;;;;3.77;3.47;;;;;;;;;;5053700;28;20418;-46
2023/07/27 02:35:35;;;;;;;5.40;3.73;;;;;;;;;;5053515;28;20381;-46
2023/07/27 02:38:02;;;;;;;3.50;3.20;;;;;;;;;;5053887;28;20406;-46
2023/07/27 02:40:28;;;;;;;4.50;4.10;;;;;;;;;;5053225;28;20407;-46
2023/07/27 02:42:54;;;;;;;3.03;2.83;;;;;;;;;;5052389;28;20824;-47
2023/07/27 02:45:20;;;;;;;4.10;3.80;;;;;;;;;;5053451;28;20761;-50
2023/07/27 02:47:45;;;;;;;4.10;3.33;;;;;;;;;;5053464;28;20479;-46
2023/07/27 02:50:11;;;;;;;4.30;3.90;;;;;;;;;;5052980;28;20451;-46
2023/07/27 02:52:37;;;;;;;4.53;4.07;;;;;;;;;;5053302;28;20421;-46
2023/07/27 02:55:03;;;;;;;4.53;3.57;;;;;;;;;;5053232;28;20411;-46
2023/07/27 02:57:29;;;;;;;8.77;4.13;;;;;;;;;;5053234;28;20415;-45
2023/07/27 02:59:55;;;;;;;5.80;3.70;;;;;;;;;;5052998;28;20448;-46
2023/07/27 03:02:22;;;;;;;4.03;3.63;;;;;;;;;;5053149;28;20388;-48
2023/07/27 03:04:48;;;;;;;5.80;3.47;;;;;;;;;;5050290;28;20381;-45
2023/07/27 03:07:14;;;;;;;4.23;3.83;;;;;;;;;;5049622;28;20435;-48
2023/07/27 03:09:40;;;;;;;4.57;3.57;;;;;;;;;;5052673;28;20511;-49
2023/07/27 03:12:06;;;;;;;7.07;4.50;;;;;;;;;;5052050;28;20412;-47
2023/07/27 03:14:32;;;;;;;5.13;3.80;;;;;;;;;;5052872;28;21131;-49
2023/07/27 03:16:58;;;;;;;4.23;3.83;;;;;;;;;;5053041;28;20384;-46
2023/07/27 03:19:24;;;;;;;6.90;4.20;;;;;;;;;;5052642;28;20440;-46
2023/07/27 03:21:50;;;;;;;5.30;4.33;;;;;;;;;;5051267;28;20509;-46
2023/07/27 03:24:17;;;;;;;6.43;4.50;;;;;;;;;;5051381;28;20403;-47
2023/07/27 03:26:43;;;;;;;4.63;4.23;;;;;;;;;;5052731;28;20959;-45
2023/07/27 03:29:10;;;;;;;4.63;4.23;;;;;;;;;;5052534;28;20919;-49
2023/07/27 03:31:38;;;;;;;4.67;4.27;;;;;;;;;;5052337;28;20409;-46
2023/07/27 03:34:04;;;;;;;5.80;4.50;;;;;;;;;;5052326;28;20897;-49
2023/07/27 03:36:30;;;;;;;5.57;4.27;;;;;;;;;;5052565;28;20399;-46
2023/07/27 03:38:56;;;;;;;6.53;4.57;;;;;;;;;;5051337;28;20412;-47
2023/07/27 03:41:22;;;;;;;6.13;4.63;;;;;;;;;;5052268;28;20827;-46
2023/07/27 03:43:47;;;;;;;8.37;4.70;;;;;;;;;;5052426;28;20773;-47
2023/07/27 03:46:13;;;;;;;6.23;4.37;;;;;;;;;;5051910;28;20776;-48
2023/07/27 03:48:39;;;;;;;5.77;4.20;;;;;;;;;;5052238;28;20449;-48
2023/07/27 03:51:05;;;;;;;5.83;4.40;;;;;;;;;;5051833;28;20545;-46
2023/07/27 03:53:31;;;;;;;4.87;4.30;;;;;;;;;;5051066;28;20420;-46
2023/07/27 03:56:01;;;;;;;5.07;4.60;;;;;;;;;;5049496;28;20406;-47
2023/07/27 03:58:27;;;;;;;5.10;4.53;;;;;;;;;;5052237;28;20914;-46
2023/07/27 04:00:52;;;;;;;5.60;3.63;;;;;;;;;;5051862;28;20445;-48
2023/07/27 04:03:18;;;;;;;6.23;4.43;;;;;;;;;;5052393;28;20883;-49
2023/07/27 04:05:44;;;;;;;6.40;4.10;;;;;;;;;;5052065;28;20873;-46
2023/07/27 04:08:10;;;;;;;6.40;4.00;;;;;;;;;;5050859;28;20886;-46
2023/07/27 04:10:36;;;;;;;7.53;4.40;;;;;;;;;;5051616;28;21050;-46
2023/07/27 04:13:02;;;;;;;6.33;5.07;;;;;;;;;;5052027;28;20408;-46
2023/07/27 04:15:28;;;;;;;5.03;4.63;;;;;;;;;;5051949;28;20413;-47
2023/07/27 04:17:54;;;;;;;4.83;4.43;;;;;;;;;;5046797;28;20410;-47
2023/07/27 04:20:20;;;;;;;10.67;4.70;;;;;;;;;;5047688;28;20425;-48
2023/07/27 04:22:46;;;;;;;4.20;3.87;;;;;;;;;;5052001;28;20405;-49
2023/07/27 04:25:12;;;;;;;5.20;4.70;;;;;;;;;;5051756;28;20420;-46
2023/07/27 04:27:38;;;;;;;5.37;4.60;;;;;;;;;;5051615;28;20445;-46
2023/07/27 04:30:04;;;;;;;8.80;4.90;;;;;;;;;;5051234;28;20457;-46
2023/07/27 04:32:30;;;;;;;6.13;5.17;;;;;;;;;;5051801;28;20828;-46
2023/07/27 04:34:56;;;;;;;5.30;4.80;;;;;;;;;;5050625;28;20904;-46
2023/07/27 04:37:22;;;;;;;5.57;5.07;;;;;;;;;;5051731;28;20892;-47
2023/07/27 04:39:48;;;;;;;9.43;4.87;;;;;;;;;;5051375;28;20536;-46
2023/07/27 04:42:14;;;;;;;5.60;5.10;;;;;;;;;;5051575;28;20863;-50
2023/07/27 04:44:40;;;;;;;5.47;4.27;;;;;;;;;;5051334;28;20822;-48
2023/07/27 04:47:06;;;;;;;6.47;5.17;;;;;;;;;;5051430;28;20861;-46
2023/07/27 04:49:32;;;;;;;7.57;5.00;;;;;;;;;;5050310;28;20510;-46
2023/07/27 04:51:58;;;;;;;7.97;4.60;;;;;;;;;;5051372;28;20405;-46
2023/07/27 04:54:24;;;;;;;5.40;4.87;;;;;;;;;;5051303;28;20417;-46
2023/07/27 04:56:50;;;;;;;6.13;4.63;;;;;;;;;;5048831;28;20451;-46
2023/07/27 04:59:16;;;;;;;5.73;5.13;;;;;;;;;;5052085;28;20915;-47
2023/07/27 05:01:42;;;;;;;6.60;5.07;;;;;;;;;;5055259;28;20421;-47
2023/07/27 05:04:08;;;;;;;6.87;4.83;;;;;;;;;;5054618;28;20416;-47
2023/07/27 05:06:38;;;;;;;5.53;5.03;;;;;;;;;;5055259;28;20848;-46
2023/07/27 05:09:04;;;;;;;8.87;4.97;;;;;;;;;;5055182;28;20425;-46
2023/07/27 05:11:30;;;;;;;6.97;5.00;;;;;;;;;;5054914;28;20445;-46
2023/07/27 05:13:56;;;;;;;9.87;4.53;;;;;;;;;;5055215;28;20453;-46
2023/07/27 05:16:22;;;;;;;5.80;5.00;;;;;;;;;;5054353;28;20405;-47
2023/07/27 05:18:48;;;;;;;8.00;4.43;;;;;;;;;;5055088;28;20459;-46
2023/07/27 05:21:14;;;;;;;7.57;5.30;;;;;;;;;;5054607;28;20409;-48
2023/07/27 05:23:40;;;;;;;5.53;4.03;;;;;;;;;;5054837;28;20478;-50
2023/07/27 05:26:06;;;;;;;7.30;4.60;;;;;;;;;;5052931;28;20432;-50
2023/07/27 05:28:32;;;;;;;6.17;5.57;;;;;;;;;;5054401;28;20417;-46
2023/07/27 05:30:58;;;;;;;5.53;4.80;;;;;;;;;;5053291;28;20481;-46
2023/07/27 05:33:24;;;;;;;5.40;4.63;;;;;;;;;;5054181;28;20408;-53
2023/07/27 05:35:50;;;;;;;6.60;4.43;;;;;;;;;;5054203;28;20447;-46
2023/07/27 05:38:17;;;;;;;8.40;4.53;;;;;;;;;;5054204;28;20458;-46
2023/07/27 05:40:43;;;;;;;7.00;5.20;;;;;;;;;;5054554;28;20440;-46
2023/07/27 05:43:09;;;;;;;6.40;4.97;;;;;;;;;;5054779;28;20413;-48
2023/07/27 05:45:37;;;;;;;6.20;4.60;;;;;;;;;;5053984;28;20420;-49
2023/07/27 05:48:03;;;;;;;8.93;4.97;;;;;;;;;;5054583;28;21057;-45
2023/07/27 05:50:29;;;;;;;7.63;5.10;;;;;;;;;;5053333;28;20722;-45
2023/07/27 05:52:55;;;;;;;7.77;5.30;;;;;;;;;;5053157;28;20437;-46
2023/07/27 05:55:21;;;;;;;7.70;4.77;;;;;;;;;;5052987;28;20408;-46
2023/07/27 05:57:47;;;;;;;6.10;4.43;;;;;;;;;;5046398;28;20406;-47
2023/07/27 06:00:13;;;;;;;6.80;4.30;;;;;;;;;;5047331;28;20438;-51
2023/07/27 06:02:39;;;;;;;5.50;4.70;;;;;;;;;;5053365;28;20592;-46
2023/07/27 06:05:06;;;;;;;5.00;4.60;;;;;;;;;;5052947;28;20510;-46
2023/07/27 06:07:32;;;;;;;7.80;4.57;;;;;;;;;;5052741;28;20417;-47
2023/07/27 06:09:58;;;;;;;5.50;4.93;;;;;;;;;;5050420;28;20980;-47
2023/07/27 06:12:24;;;;;;;5.30;4.63;;;;;;;;;;5050538;28;20462;-49
2023/07/27 06:14:51;;;;;;;9.27;4.40;;;;;;;;;;5051961;28;20396;-50
2023/07/27 06:17:17;;;;;;;5.10;3.83;;;;;;;;;;5052852;28;20417;-46
2023/07/27 06:19:43;;;;;;;6.03;4.40;;;;;;;;;;5044829;28;20448;-46
2023/07/27 06:22:09;;;;;;;4.53;4.10;;;;;;;;;;5052255;28;20466;-48
2023/07/27 06:24:35;;;;;;;4.17;3.87;;;;;;;;;;5045465;28;20444;-49
2023/07/27 06:27:01;;;;;;;4.30;3.90;;;;;;;;;;5052645;28;20474;-46
2023/07/27 06:29:27;;;;;;;4.97;4.20;;;;;;;;;;5054308;28;20465;-46
2023/07/27 06:31:52;;;;;;;5.47;3.90;;;;;;;;;;5052460;28;20401;-45
2023/07/27 06:34:18;;;;;;;6.87;3.80;;;;;;;;;;5052610;28;20433;-46
2023/07/27 06:36:44;;;;;;;4.80;3.87;;;;;;;;;;5052432;28;20410;-47
2023/07/27 06:39:10;;;;;;;32.13;5.10;;;;;;;;;;5045507;28;20491;-47
2023/07/27 06:41:36;;;;;;;6.33;3.27;;;;;;;;;;5051744;28;20413;-49
2023/07/27 06:44:02;;;;;;;3.83;3.53;;;;;;;;;;5052477;28;20612;-45
2023/07/27 06:46:28;;;;;;;4.00;3.70;;;;;;;;;;5052262;28;20471;-46
2023/07/27 06:48:54;;;;;;;6.20;3.93;;;;;;;;;;5052422;28;21099;-45
2023/07/27 06:51:22;;;;;;;3.97;3.67;;;;;;;;;;5002943;28;1435062;-47
2023/07/27 06:53:48;;;;;;;3.43;3.13;;;;;;;;;;5046467;28;20956;-46
2023/07/27 06:56:14;;;;;;;5.90;3.30;;;;;;;;;;5052880;28;20448;-46
2023/07/27 06:58:40;;;;;;;4.73;3.53;;;;;;;;;;5053173;28;20782;-47
2023/07/27 07:01:06;;;;;;;4.13;3.73;;;;;;;;;;5052950;28;20441;-45
2023/07/27 07:03:32;;;;;;;5.93;3.20;;;;;;;;;;5052934;28;20455;-48
2023/07/27 07:05:58;;;;;;;4.23;3.60;;;;;;;;;;5053068;28;20413;-46
2023/07/27 07:08:24;;;;;;;3.13;2.90;;;;;;;;;;5052639;28;20401;-45
2023/07/27 07:10:50;;;;;;;3.63;3.33;;;;;;;;;;5052725;28;20461;-45
2023/07/27 07:13:16;;;;;;;3.37;3.07;;;;;;;;;;5052857;28;20464;-46
2023/07/27 07:15:43;;;;;;;3.10;2.90;;;;;;;;;;5049281;28;20416;-46
2023/07/27 07:18:09;;;;;;;3.77;3.47;;;;;;;;;;5052833;28;20405;-46
2023/07/27 07:20:34;;;;;;;3.73;3.43;;;;;;;;;;5051707;28;20436;-46
2023/07/27 07:23:00;;;;;;;3.70;3.40;;;;;;;;;;5052790;28;20801;-47
2023/07/27 07:25:26;;;;;;;3.37;2.90;;;;;;;;;;5052765;28;20800;-50
2023/07/27 07:27:52;;;;;;;3.60;3.30;;;;;;;;;;5052722;28;20786;-46
2023/07/27 07:30:18;;;;;;;3.27;3.07;;;;;;;;;;5052265;28;20829;-46
2023/07/27 07:32:44;;;;;;;3.50;3.20;;;;;;;;;;5052582;28;20810;-45
2023/07/27 07:35:10;;;;;;;2.97;2.77;;;;;;;;;;5052531;28;20864;-46
2023/07/27 07:37:36;;;;;;;4.40;3.30;;;;;;;;;;5052265;28;20560;-46
2023/07/27 07:40:02;;;;;;;3.43;3.23;;;;;;;;;;5052200;28;20972;-46
2023/07/27 07:42:28;;;;;;;4.00;3.57;;;;;;;;;;5052951;28;20500;-50
2023/07/27 07:44:54;;;;;;;2.63;2.43;;;;;;;;;;5052340;28;20496;-49
2023/07/27 07:47:20;;;;;;;4.33;3.00;;;;;;;;;;5052779;28;20463;-51
2023/07/27 07:49:46;;;;;;;5.30;2.83;;;;;;;;;;5051703;28;20473;-51
2023/07/27 07:52:13;;;;;;;3.73;2.80;;;;;;;;;;5052021;28;20881;-51
2023/07/27 07:54:39;;;;;;;2.90;2.70;;;;;;;;;;5043326;28;20409;-48
2023/07/27 07:57:05;;;;;;;3.27;3.07;;;;;;;;;;5048381;28;20416;-50
2023/07/27 07:59:31;;;;;;;2.87;2.67;;;;;;;;;;5046652;28;20431;-51
2023/07/27 08:01:57;;;;;;;3.47;2.70;;;;;;;;;;5051722;28;20417;-50
2023/07/27 08:04:23;;;;;;;3.60;2.80;;;;;;;;;;5051695;28;20428;-52
2023/07/27 08:06:49;;;;;;;3.00;2.80;;;;;;;;;;5052131;28;20409;-50
2023/07/27 08:09:15;;;;;;;2.90;2.70;;;;;;;;;;5053855;28;20396;-48
2023/07/27 08:11:41;;;;;;;3.60;2.57;;;;;;;;;;5054300;28;20414;-48
2023/07/27 08:14:08;;;;;;;3.40;2.67;;;;;;;;;;5049830;28;20406;-51
2023/07/27 08:16:34;;;;;;;2.93;2.73;;;;;;;;;;5043194;28;20419;-51
2023/07/27 08:19:00;;;;;;;6.40;3.30;;;;;;;;;;5051106;28;20413;-51
2023/07/27 08:21:28;;;;;;;8.60;4.37;;;;;;;;;;5050548;28;20421;-51
2023/07/27 08:23:54;;;;;;;3.13;2.80;;;;;;;;;;5051695;28;20411;-50
2023/07/27 08:26:20;;;;;;;3.70;3.40;;;;;;;;;;5051427;28;20971;-49
2023/07/27 08:28:47;;;;;;;8.53;3.30;;;;;;;;;;5051700;28;20414;-48
2023/07/27 08:31:13;;;;;;;16.43;4.30;;;;;;;;;;5044380;28;20435;-47
2023/07/27 08:33:39;;;;;;;3.47;3.27;;;;;;;;;;5051172;28;20410;-51
2023/07/27 08:36:05;;;;;;;3.30;3.10;;;;;;;;;;5051066;28;20384;-50
2023/07/27 08:38:31;;;;;;;3.30;2.97;;;;;;;;;;5050813;28;20476;-51
2023/07/27 08:40:58;;;;;;;4.33;3.90;;;;;;;;;;5051171;28;20444;-51
2023/07/27 08:43:25;;;;;;;3.70;3.40;;;;;;;;;;5051393;28;20460;-50
2023/07/27 08:45:51;;;;;;;3.70;3.40;;;;;;;;;;5045144;28;20478;-51
2023/07/27 08:48:17;;;;;;;3.10;2.90;;;;;;;;;;5051530;28;20426;-51
2023/07/27 08:50:44;;;;;;;3.83;3.63;;;;;;;;;;5050946;28;20466;-51
2023/07/27 08:53:10;;;;;;;3.00;2.80;;;;;;;;;;5051537;28;20386;-51
2023/07/27 08:55:36;;;;;;;3.97;3.67;;;;;;;;;;5046363;28;20407;-51
2023/07/27 08:58:02;;;;;;;3.33;3.07;;;;;;;;;;5051526;28;20424;-51
2023/07/27 09:00:28;;;;;;;3.20;3.00;;;;;;;;;;5051076;28;20458;-51
2023/07/27 09:02:54;;;;;;;3.73;3.43;;;;;;;;;;5051466;28;20406;-51
2023/07/27 09:05:20;;;;;;;3.40;3.10;;;;;;;;;;5049672;28;20444;-50
2023/07/27 09:07:50;;;;;;;3.37;3.17;;;;;;;;;;5051279;28;20413;-52
2023/07/27 09:10:16;;;;;;;15.97;4.30;;;;;;;;;;5050795;28;20903;-49
2023/07/27 09:12:43;;;;;;;2.67;2.47;;;;;;;;;;5051240;28;21192;-50
2023/07/27 09:15:15;;;;;;;8.83;3.03;;;;;;;;;;5051243;28;20446;-50
2023/07/27 09:17:42;;;;;;;3.43;3.03;;;;;;;;;;5043531;28;20409;-51
2023/07/27 09:20:10;;;;;;;3.43;2.60;;;;;;;;;;5050891;28;20402;-51
2023/07/27 09:22:37;;;;;;;21.37;4.13;;;;;;;;;;5051144;28;20406;-51
2023/07/27 09:25:03;;;;;;;2.73;2.53;;;;;;;;;;5046359;28;20504;-50
2023/07/27 09:27:40;;;;;;;2.90;2.70;;;;;;;;;;5051004;28;20419;-49
2023/07/27 09:30:06;;;;;;;2.87;2.77;;;;;;;;;;5046246;28;20467;-50
2023/07/27 09:32:36;;;;;;;7.43;3.37;;;;;;;;;;5051101;28;20988;-50
2023/07/27 09:35:02;;;;;;;2.60;2.50;;;;;;;;;;5050942;28;20731;-50
2023/07/27 09:37:29;;;;;;;2.80;2.60;;;;;;;;;;5044349;28;20407;-51
2023/07/27 09:40:08;;;;;;;2.93;2.70;;;;;;;;;;5034714;28;20441;-50
2023/07/27 09:42:34;;;;;;;3.40;2.70;;;;;;;;;;5050954;28;20405;-51
2023/07/27 09:45:00;;;;;;;2.50;2.30;;;;;;;;;;5054236;28;20772;-52
2023/07/27 09:47:31;;;;;;;3.53;3.00;;;;;;;;;;5054614;28;20422;-50
2023/07/27 09:49:58;;;;;;;2.47;2.33;;;;;;;;;;5054116;28;20477;-50
2023/07/27 09:52:25;;;;;;;2.83;2.63;;;;;;;;;;5053402;28;20415;-50
2023/07/27 09:54:51;;;;;;;2.30;2.20;;;;;;;;;;5054408;28;20401;-51
2023/07/27 09:57:18;;;;;;;2.50;2.30;;;;;;;;;;5046340;28;20966;-51
2023/07/27 09:59:44;;;;;;;2.50;2.30;;;;;;;;;;5052708;28;20408;-49
2023/07/27 10:02:10;;;;;;;2.60;2.50;;;;;;;;;;5054319;28;20461;-48
2023/07/27 10:04:36;;;;;;;2.77;2.67;;;;;;;;;;5050970;28;21046;-51
2023/07/27 10:07:02;;;;;;;7.13;2.30;;;;;;;;;;5053800;28;20930;-51
2023/07/27 10:09:28;;;;;;;3.00;2.80;;;;;;;;;;5053900;28;20444;-50
2023/07/27 10:11:55;;;;;;;2.50;2.40;;;;;;;;;;5053986;28;20443;-51
2023/07/27 10:14:23;;;;;;;3.40;2.77;;;;;;;;;;5052658;28;20819;-51
2023/07/27 10:17:10;;;;;;;2.50;2.40;;;;;;;;;;5054039;28;20415;-52
2023/07/27 10:19:42;;;;;;;2.73;2.53;;;;;;;;;;5053733;28;20438;-49
2023/07/27 10:22:09;;;;;;;4.03;2.63;;;;;;;;;;5053982;28;20845;-50
2023/07/27 10:24:46;;;;;;;2.60;2.50;;;;;;;;;;5053978;28;20410;-50
2023/07/27 10:27:12;;;;;;;3.60;2.50;;;;;;;;;;5052845;28;20433;-51
2023/07/27 10:29:38;;;;;;;3.90;2.93;;;;;;;;;;5052906;28;20954;-50
2023/07/27 10:32:06;;;;;;;2.30;2.10;;;;;;;;;;5052456;28;20794;-51
2023/07/27 10:34:33;;;;;;;4.23;2.53;;;;;;;;;;5052329;28;20463;-50
2023/07/27 10:37:00;;;;;;;1.93;1.83;;;;;;;;;;5041216;28;20896;-52
2023/07/27 10:39:34;;;;;;;3.10;2.50;;;;;;;;;;5040201;28;20451;-51
2023/07/27 10:42:12;;;;;;;2.40;2.30;;;;;;;;;;5038980;28;20420;-49
2023/07/27 10:44:44;;;;;;;6.17;2.73;;;;;;;;;;5047155;28;20394;-50
2023/07/27 10:47:11;;;;;;;2.83;2.63;;;;;;;;;;5052396;28;20406;-49
2023/07/27 10:49:44;;;;;;;2.47;2.37;;;;;;;;;;5053082;28;20957;-49
2023/07/27 10:52:13;;;;;;;2.50;2.40;;;;;;;;;;5053469;28;20439;-50
2023/07/27 10:54:40;;;;;;;22.20;3.57;;;;;;;;;;5052518;28;20463;-49
2023/07/27 10:57:06;;;;;;;2.30;2.20;;;;;;;;;;5052959;28;20396;-48
2023/07/27 10:59:35;;;;;;;2.50;2.40;;;;;;;;;;5049944;28;20447;-51
2023/07/27 11:02:01;;;;;;;2.40;2.30;;;;;;;;;;5053231;28;20421;-51
2023/07/27 11:04:28;;;;;;;2.80;2.70;;;;;;;;;;5053140;28;20396;-51
2023/07/27 11:06:54;;;;;;;4.53;3.43;;;;;;;;;;5038251;28;20414;-51
2023/07/27 11:09:21;;;;;;;3.20;3.00;;;;;;;;;;5046282;28;20482;-51
2023/07/27 11:11:50;;;;;;;4.93;3.37;;;;;;;;;;5052926;28;20414;-50
2023/07/27 11:14:16;;;;;;;3.97;3.67;;;;;;;;;;5052969;28;20916;-49
2023/07/27 11:16:42;;;;;;;5.03;4.20;;;;;;;;;;5053187;28;20754;-50
2023/07/27 11:19:09;;;;;;;6.17;4.90;;;;;;;;;;5052894;28;20421;-51
2023/07/27 11:21:39;;;;;;;6.37;4.50;;;;;;;;;;5052739;28;20392;-49
2023/07/27 11:24:06;;;;;;;4.90;4.50;;;;;;;;;;5052776;28;20380;-48
2023/07/27 11:26:32;;;;;;;4.00;3.80;;;;;;;;;;5058076;28;20861;-50
2023/07/27 11:29:00;;;;;;;5.67;5.17;;;;;;;;;;5068157;28;20406;-50
2023/07/27 11:31:27;;;;;;;5.33;4.93;;;;;;;;;;5034544;28;20475;-49
2023/07/27 11:33:57;;;;;;;5.93;5.40;;;;;;;;;;5035776;28;20392;-51
2023/07/27 11:36:26;;;;;;;5.33;4.83;;;;;;;;;;5032527;28;20410;-51
2023/07/27 11:38:52;;;;;;;5.87;5.37;;;;;;;;;;5046213;28;20513;-51
2023/07/27 11:41:18;;;;;;;7.63;6.43;;;;;;;;;;5043992;28;20487;-50
2023/07/27 11:43:44;;;;;;;8.10;7.30;;;;;;;;;;5046332;28;20392;-52
2023/07/27 11:46:10;;;;;;;7.23;6.53;;;;;;;;;;5052402;28;20392;-50
2023/07/27 11:48:36;;;;;;;8.40;7.57;;;;;;;;;;5052373;28;20378;-51
2023/07/27 11:51:02;;;;;;;9.03;7.63;;;;;;;;;;5040971;28;20440;-50
2023/07/27 11:53:28;;;;;;;10.47;8.73;;;;;;;;;;5051806;28;20420;-51
2023/07/27 11:55:55;;;;;;;8.70;7.90;;;;;;;;;;5052270;28;20431;-49
2023/07/27 11:58:26;;;;;;;8.57;7.77;;;;;;;;;;5052200;28;20414;-51
2023/07/27 12:00:54;;;;;;;10.33;8.67;;;;;;;;;;5051880;28;20474;-51
2023/07/27 12:03:20;;;;;;;8.73;7.93;;;;;;;;;;5052168;28;20459;-50
2023/07/27 12:05:47;;;;;;;9.40;8.47;;;;;;;;;;5051907;28;20424;-49
2023/07/27 12:08:18;;;;;;;10.07;9.17;;;;;;;;;;5051995;28;20412;-51
2023/07/27 12:10:59;;;;;;;10.87;8.90;;;;;;;;;;5051677;28;20461;-50
2023/07/27 12:13:26;;;;;;;9.10;8.30;;;;;;;;;;5052037;28;20418;-50
2023/07/27 12:15:59;;;;;;;8.53;7.73;;;;;;;;;;5051772;28;20380;-51
2023/07/27 12:18:26;;;;;;;11.00;7.33;;;;;;;;;;5051819;28;20451;-51
2023/07/27 12:20:53;;;;;;;9.97;8.97;;;;;;;;;;5051594;28;20469;-51
2023/07/27 12:23:19;;;;;;;6.93;6.43;;;;;;;;;;5051707;28;20442;-52
2023/07/27 12:25:45;;;;;;;7.23;6.30;;;;;;;;;;5050757;28;20457;-50
2023/07/27 12:28:10;;;;;;;4.30;4.00;;;;;;;;;;5049933;28;20952;-51
2023/07/27 12:30:36;;;;;;;5.03;4.53;;;;;;;;;;5051527;28;20442;-52
2023/07/27 12:33:02;;;;;;;6.93;4.50;;;;;;;;;;5050593;28;20376;-51
2023/07/27 12:35:29;;;;;;;4.33;3.93;;;;;;;;;;5032196;28;20425;-51
2023/07/27 12:37:55;;;;;;;8.80;4.03;;;;;;;;;;5047964;28;20402;-50
2023/07/27 12:40:21;;;;;;;4.00;3.43;;;;;;;;;;5051493;28;20420;-51
2023/07/27 12:42:47;;;;;;;3.63;3.33;;;;;;;;;;5051989;28;20728;-51
2023/07/27 12:45:13;;;;;;;3.20;3.00;;;;;;;;;;5051370;28;20839;-50
2023/07/27 12:47:42;;;;;;;4.10;3.70;;;;;;;;;;5051712;28;20442;-51
2023/07/27 12:50:08;;;;;;;3.40;3.17;;;;;;;;;;5051071;28;20546;-51
2023/07/27 12:52:34;;;;;;;4.47;4.07;;;;;;;;;;5051599;28;20410;-51
2023/07/27 12:55:00;;;;;;;6.70;3.23;;;;;;;;;;5050363;28;20494;-50
2023/07/27 12:57:26;;;;;;;3.03;2.70;;;;;;;;;;5049291;28;20423;-50
2023/07/27 12:59:52;;;;;;;4.03;3.10;;;;;;;;;;5050967;28;20431;-49
2023/07/27 13:02:18;;;;;;;3.70;3.40;;;;;;;;;;5051500;28;20768;-51
2023/07/27 13:04:45;;;;;;;3.33;3.00;;;;;;;;;;5051671;28;20413;-50
2023/07/27 13:07:13;;;;;;;9.60;3.37;;;;;;;;;;5050756;28;20489;-49
2023/07/27 13:09:39;;;;;;;7.10;3.00;;;;;;;;;;5050954;28;20435;-46
2023/07/27 13:12:05;;;;;;;3.60;3.30;;;;;;;;;;5051369;28;20402;-50
2023/07/27 13:14:31;;;;;;;2.97;2.80;;;;;;;;;;5051279;28;20774;-50
2023/07/27 13:16:57;;;;;;;3.67;3.37;;;;;;;;;;5051304;28;20900;-52
2023/07/27 13:19:23;;;;;;;4.53;3.27;;;;;;;;;;5053606;28;20876;-51
2023/07/27 13:21:49;;;;;;;4.60;4.00;;;;;;;;;;5054830;28;20974;-51
2023/07/27 13:24:15;;;;;;;3.60;3.40;;;;;;;;;;5054984;28;20418;-51
2023/07/27 13:26:41;;;;;;;4.50;3.20;;;;;;;;;;5055491;28;20457;-52
2023/07/27 13:29:08;;;;;;;3.93;3.63;;;;;;;;;;5055089;28;20482;-51
2023/07/27 13:31:34;;;;;;;4.23;4.00;;;;;;;;;;5054747;28;20483;-52
2023/07/27 13:34:00;;;;;;;3.23;3.03;;;;;;;;;;5038116;28;20444;-51
2023/07/27 13:36:26;;;;;;;3.80;3.60;;;;;;;;;;5048924;28;20763;-49
2023/07/27 13:38:52;;;;;;;3.93;3.47;;;;;;;;;;5054797;28;20532;-49
2023/07/27 13:41:17;;;;;;;2.27;2.17;;;;;;;;;;5054549;28;20400;-52
2023/07/27 13:43:43;;;;;;;2.50;2.40;;;;;;;;;;5055467;28;20433;-51
2023/07/27 13:46:09;;;;;;;7.80;2.70;;;;;;;;;;5054736;28;20389;-52
2023/07/27 13:48:35;;;;;;;3.10;2.10;;;;;;;;;;5055236;28;20415;-50
2023/07/27 13:51:01;;;;;;;6.70;2.20;;;;;;;;;;5054033;28;20477;-50
2023/07/27 13:53:27;;;;;;;6.47;2.10;;;;;;;;;;5054467;28;20903;-50
2023/07/27 13:55:53;;;;;;;2.00;1.90;;;;;;;;;;5054519;28;20396;-50
2023/07/27 13:58:19;;;;;;;4.30;2.67;;;;;;;;;;5054500;28;20411;-51
2023/07/27 14:00:46;;;;;;;2.53;2.40;;;;;;;;;;5054263;28;20417;-51
2023/07/27 14:03:13;;;;;;;2.90;2.50;;;;;;;;;;5054341;28;20419;-49
2023/07/27 14:05:39;;;;;;;2.50;2.40;;;;;;;;;;5054208;28;20373;-51
2023/07/27 14:08:05;;;;;;;7.73;2.43;;;;;;;;;;5054369;28;20904;-51
2023/07/27 14:10:31;;;;;;;3.20;2.40;;;;;;;;;;5053911;28;20472;-50
2023/07/27 14:12:57;;;;;;;2.50;2.40;;;;;;;;;;5053743;28;20384;-51
2023/07/27 14:15:23;;;;;;;6.90;2.60;;;;;;;;;;5054002;28;20638;-49
2023/07/27 14:17:49;;;;;;;6.17;2.63;;;;;;;;;;5054083;28;20386;-52
2023/07/27 14:20:15;;;;;;;2.30;2.10;;;;;;;;;;5053803;28;20463;-52
2023/07/27 14:22:41;;;;;;;2.60;2.40;;;;;;;;;;5054106;28;20378;-52
2023/07/27 14:25:07;;;;;;;8.50;2.80;;;;;;;;;;5054157;28;20760;-52
2023/07/27 14:27:33;;;;;;;3.30;2.80;;;;;;;;;;5053364;28;20398;-52
2023/07/27 14:30:01;;;;;;;2.80;2.60;;;;;;;;;;5053203;28;20482;-52
2023/07/27 14:32:27;;;;;;;6.80;2.70;;;;;;;;;;5049966;28;20412;-50
2023/07/27 14:34:53;;;;;;;3.87;2.70;;;;;;;;;;5053803;28;20975;-48
2023/07/27 14:37:18;;;;;;;3.37;2.40;;;;;;;;;;5053970;28;20413;-52
2023/07/27 14:39:44;;;;;;;4.30;2.50;;;;;;;;;;5048058;28;20420;-51